Tiempo atmosférico en la estación meteorológica de Calamocha, Teruel (890 m.)



Fecha
DESCASC
Temp. máxima en grados centígrados (hora)
DESCASC
Temp. mínima en grados centígrados (hora)
DESCASC
Temp. media en grados centígrados
DESCASC
Racha de viento máxima en m/sg (hora)
DESCASC
Velocidad máxima media en intervalos de 10 minutos(hora)
DESCASC
Precipitaciones diarias en mm
DESCASC
Precipitaciones de 00:00 a 06:00 en mm
DESCASC
Precipitaciones de 06:00 a 12:00 en mm
DESCASC
Precipitaciones de 12:00 a 18:00 en mm
DESCASC
Precipitaciones de 18:00 a 24:00 en mm
DESCASC
05-12-2019 6.7 (17:10) 3.9 (06:30) 5.3 8.61 (11:10) 4.72 (11:10) 0.8 0.8 0 0 0
04-12-2019 7 (14:20) 2.2 (00:00) 4.6 12.22 (22:10) 6.11 (22:10) 6.4 0 0 1 5.4
03-12-2019 5.4 (14:00) -0.7 (04:50) 2.4 6.94 (15:30) 3.89 (16:10) 0 0 0 0 0
02-12-2019 7.6 (12:40) 2.7 (00:00) 5.1 11.11 (20:50) 5.28 (19:20) 0 0 0 0 0
01-12-2019 10.1 (14:10) 2.8 (00:00) 6.5 3.89 (09:40) 2.22 (09:30) 1.6 1.6 0 0 0
30-11-2019 16.4 (14:30) 5.7 (00:00) 11 10.83 (15:50) 6.11 (13:30) 2.6 0 0 0 2.6
29-11-2019 15.5 (14:00) 9.9 (00:00) 12.7 8.06 (14:30) 4.17 (00:40) 0 0 0 0 0
28-11-2019 12.6 (15:00) 6.9 (07:40) 9.8 10.28 (13:10) 5.56 (12:20) 0 0 0 0 0
27-11-2019 13.6 (14:40) 8.4 (00:00) 11 13.06 (00:30) 6.11 (15:40) 0 0 0 0 0
26-11-2019 17 (14:50) 2.8 (00:00) 9.9 11.39 (15:00) 5.83 (13:30) 0 0 0 0 0
25-11-2019 14.2 (13:10) 5.4 (02:00) 9.8 9.17 (15:30) 3.89 (15:30) 0.2 0.2 0 0 0
24-11-2019 9.8 (15:30) 4 (00:00) 6.9 9.17 (03:20) 4.17 (02:30) 0 0 0 0 0
23-11-2019 9.4 (15:40) 3.8 (00:00) 6.6 14.72 (12:00) 6.67 (12:00) 4.2 0.4 3.8 0 0
22-11-2019 11.2 (13:40) 2.3 (00:00) 6.7 16.39 (21:20) 8.33 (21:20) 2.4 0 0 1.4 1
21-11-2019 9.7 (14:10) 3.3 (00:00) 6.5 7.78 (14:30) 4.17 (14:30) 0 0 0 0 0
20-11-2019 11.2 (16:00) -1.3 (07:10) 4.9 4.72 (18:10) 2.5 (03:50) 0.2 0 0 0 0.2
19-11-2019 9.2 (15:40) -3.6 (-00:0) 2.8 6.67 (12:50) 3.06 (13:00) 0 0 0 0 0
18-11-2019 7.8 (14:50) 0.1 (00:00) 4 8.89 (14:50) 3.89 (14:50) 0.2 0 0.2 0 0
17-11-2019 9.1 (14:10) -0.6 (-00:0) 4.3 8.61 (14:40) 4.44 (13:10) 3 0 0 1.6 1.4
16-11-2019 7 (13:40) -0.4 (00:00) 3.3 7.78 (14:00) 3.61 (16:10) 0 0 0 0 0
15-11-2019 7.7 (13:50) 1 (00:00) 4.3 11.39 (14:30) 4.72 (14:30) 0.8 0 0 0.2 0.6
14-11-2019 8.6 (06:20) 2.5 (00:00) 5.6 17.22 (08:20) 6.67 (08:20) 5.4 0 5.2 0 0.2
13-11-2019 11.9 (14:30) 3.4 (00:00) 7.6 8.89 (13:20) 3.61 (15:20) 11.6 8 3.6 0 0
12-11-2019 10.8 (16:00) 0.9 (00:00) 5.9 8.61 (17:50) 3.61 (15:20) 1 0 0.4 0 0.6
11-11-2019 7.8 (13:00) 0.3 (05:00) 4.1 8.89 (19:50) 3.61 (13:10) 2.4 0 0 2.2 0.2
10-11-2019 7.6 (15:40) 1.2 (00:00) 4.4 13.06 (17:10) 6.11 (13:20) 6.8 6.8 0 0 0
09-11-2019 11.1 (13:00) 2.6 (00:00) 6.9 10.28 (17:30) 4.17 (17:10) 0 0 0 0 0
08-11-2019 9.8 (14:00) 2.7 (03:10) 6.3 16.39 (14:20) 7.22 (14:20) 0 0 0 0 0

Gráficas

Temp. máximas Temp. mínimas Temp. medias Precipitaciones Rachas de viento máximas Velocidades máximas media en intervalos de 10 minutos

Datos horarios

Fecha y hora oficial Temperatura (ºC) Velocidad del viento (km/h) Dirección del viento Racha (km/h) Dirección de racha Precipitación (mm) Presión (hPa) Tendencia (hPa) Humedad (%)
2019-12-07 23:00:00 1.6 2 Sudoeste 8 Sudeste 0 922.9 1 94
2019-12-07 22:00:00 2.1 2 Norte 6 Sur 0 922.6 1.2 93
2019-12-07 21:00:00 3.2 0 Calma 6 Sudeste 0 922.3 1.4 91
2019-12-07 20:00:00 4.5 3 Sur 8 Sur 0 921.9 1.3 86
2019-12-07 19:00:00 6.8 2 Sudoeste 4 Noroeste 0 921.4 0.8 83
2019-12-07 18:00:00 9.3 3 Noroeste 5 Norte 0 920.9 0.4 78
2019-12-07 17:00:00 11.4 3 Noroeste 8 Noroeste 0 920.6 -0.3 67
2019-12-07 16:00:00 12.4 2 Norte 10 Norte 0 920.6 -1.2 63
2019-12-07 15:00:00 11.6 3 Norte 10 Norte 0 920.5 -2.1 67
2019-12-07 14:00:00 10.4 4 Este 9 Sur 0 920.9 -2.2 73
2019-12-07 13:00:00 9.2 5 Sudoeste 11 Sur 0 921.8 -0.8 76
2019-12-07 12:00:00 6.4 8 Sur 15 Sudoeste 0 922.6 0.6 83
2019-12-07 11:00:00 4.1 9 Sur 13 Sur 0 923.1 1.4 88
2019-12-07 10:00:00 2.2 7 Sur 12 Sur 0 922.6 1 93
2019-12-07 09:00:00 0.3 5 Sur 10 Sur 0 922 0.6 98
2019-12-07 08:00:00 0.2 3 Sur 15 Sudeste 0 921.7 0.1 96
2019-12-07 07:00:00 0.5 8 Sudeste 13 Sudeste 0 921.6 -0.2 97
2019-12-07 06:00:00 0.6 9 Sudeste 13 Sudeste 0 921.4 -0.4 98
2019-12-07 05:00:00 -0.2 3 Sur 9 Sur 0 921.6 0.1 96
2019-12-07 04:00:00 0.1 4 Sur 5 Sudeste 0 921.8 0 96
2019-12-07 03:00:00 0.4 2 Sudoeste 4 Norte 0 921.8 0.1 96
2019-12-07 02:00:00 1 2 Noroeste 7 Sudeste 0 921.5 0 95
2019-12-07 01:00:00 2.3 5 Sudeste 14 Sudeste 0 921.8 0.7 95
2019-12-07 00:00:00 3.7 5 Sur 14 Sudeste 0 921.7 0.8 93
2019-12-06 23:00:00 3.2 10 Sudeste 12 Sudeste 0 921.5 1 93
2019-12-06 22:00:00 3.2 3 Este 8 Sudeste 0 921.1 0.8 93
2019-12-06 21:00:00 4.3 2 Sudeste 8 Sudeste 0 920.9 1 89
2019-12-06 20:00:00 5.3 6 Sur 10 Sur 0 920.5 0.8 87
2019-12-06 19:00:00 6.8 0 Calma 5 Sudoeste 0 920.3 0.7 82
2019-12-06 18:00:00 9.1 2 Oeste 5 Sur 0 919.9 0.3 74
2019-12-06 17:00:00 11.4 4 Sudoeste 11 Sudoeste 0 919.7 -0.7 64
2019-12-06 16:00:00 12.2 4 Sudeste 15 Oeste 0 919.6 -1.2 62
2019-12-06 15:00:00 12.3 12 Sudoeste 21 Sudoeste 0 919.6 -1.9 62
2019-12-06 14:00:00 11.1 8 Sudoeste 14 Sudoeste 0 920.4 -1.8 72
2019-12-06 13:00:00 10.2 5 Sur 11 Sudoeste 0 920.8 -1.4 77
2019-12-06 12:00:00 8.3 7 Sur 14 Sur 0 921.5 0 84
2019-12-06 11:00:00 7.4 4 Sudeste 7 Sur 0 922.2 1.2 87
2019-12-06 10:00:00 6.1 2 Noroeste 6 Norte 0 922.2 1.6 89
2019-12-06 09:00:00 5.6 3 Norte 6 Norte 0 921.5 1.3 92
2019-12-06 08:00:00 5.4 2 Nordeste 6 Norte 0 921 0.8 92
2019-12-06 07:00:00 5.3 3 Norte 5 Noroeste 0 920.6 0.2 91
2019-12-06 06:00:00 5.3 4 Norte 9 Norte 0 920.2 -0.1 91
2019-12-06 05:00:00 5.3 2 Norte 5 Noroeste 0 920.2 -0.2 92
2019-12-06 04:00:00 5.4 3 Noroeste 5 Noroeste 0 920.4 0 91
2019-12-06 03:00:00 5.5 3 Norte 8 Norte 0 920.3 -0.3 89
2019-12-06 02:00:00 5.4 3 Noroeste 14 Norte 0 920.4 -0.2 92
2019-12-06 01:00:00 5.3 6 Norte 13 Norte 0 920.4 0.1 91
2019-12-06 00:00:00 5.7 6 Norte 17 Norte 0 920.6 0.8 90
2019-12-05 23:00:00 6.1 5 Norte 12 Norte 0 920.6 1 91
2019-12-05 22:00:00 6.4 8 Norte 13 Nordeste 0 920.3 1.2 89
2019-12-05 21:00:00 6.3 3 Norte 7 Noroeste 0 919.8 1.3 88
2019-12-05 20:00:00 6.4 4 Noroeste 14 Noroeste 0 919.6 1.6 92
2019-12-05 19:00:00 6.4 5 Norte 13 Nordeste 0 919.1 1.6 92
2019-12-05 18:00:00 6.3 4 Noroeste 13 Noroeste 0 918.5 1.4 91
2019-12-05 17:00:00 6.6 4 Norte 23 Nordeste 0 918 0.9 91
2019-12-05 16:00:00 6.4 13 Nordeste 30 Nordeste 0 917.5 0.2 91
2019-12-05 15:00:00 6.5 11 Norte 23 Norte 0 917.1 -0.4 90
2019-12-05 14:00:00 6.6 12 Norte 25 Norte 0 917.1 0 90
2019-12-05 13:00:00 6.1 8 Norte 18 Norte 0 917.3 0.9 91
2019-12-05 12:00:00 6 5 Noroeste 31 Norte 0 917.5 1.8 91
2019-12-05 11:00:00 5.7 15 Norte 27 Norte 0 917.1 2.1 91
2019-12-05 10:00:00 4.8 12 Norte 26 Norte 0 916.4 2.2 94
2019-12-05 09:00:00 4.1 6 Norte 24 Nordeste 0 915.7 2 96
2019-12-05 08:00:00 3.9 6 Norte 16 Oeste 0 915 1.8 96
2019-12-05 07:00:00 3.9 7 Noroeste 24 Norte 0 914.2 1.4 97
2019-12-05 06:00:00 4.1 9 Norte 29 Norte 0.2 913.7 1.4 98
2019-12-05 05:00:00 4.6 14 Norte 28 Norte 0 913.2 1.2 96
2019-12-05 04:00:00 4.8 10 Norte 25 Norte 0.2 912.8 1.2 97
2019-12-05 03:00:00 4.7 10 Norte 22 Norte 0 912.3 1.2 97
2019-12-05 02:00:00 4.4 9 Norte 19 Norte 0.2 912 1.4 97
2019-12-05 01:00:00 4.4 8 Norte 30 Norte 0.2 911.6 1.9 97
2019-12-05 00:00:00 4.2 12 Norte 33 Norte 0.2 911.1 1.7 95
2019-12-04 23:00:00 4.4 14 Norte 44 Norte 1.2 910.6 1.6 95
2019-12-04 22:00:00 5 21 Norte 40 Norte 0.8 909.7 1.3 94
2019-12-04 21:00:00 5.5 14 Norte 30 Norte 1.2 909.4 1.2 95
2019-12-04 20:00:00 5.6 9 Norte 26 Norte 1 909 0.8 95
2019-12-04 19:00:00 5.9 16 Norte 32 Nordeste 1 908.4 0.5 95
2019-12-04 18:00:00 5.7 10 Norte 23 Norte 0.8 908.2 0.8 95
2019-12-04 17:00:00 5.4 8 Norte 22 Nordeste 0 908.2 0.9 92
2019-12-04 16:00:00 5.6 8 Norte 33 Nordeste 0 907.9 0.3 91
2019-12-04 15:00:00 6.1 10 Norte 30 Norte 0 907.4 -0.9 90
2019-12-04 14:00:00 6.5 13 Norte 36 Nordeste 0 907.3 -1.4 89
2019-12-04 13:00:00 5.7 14 Norte 34 Norte 0.2 907.6 -1.1 88
2019-12-04 12:00:00 4.9 5 Norte 13 Nordeste 0 908.3 -0.4 94
2019-12-04 11:00:00 3.6 7 Noroeste 24 Norte 0 908.7 -0.4 96
2019-12-04 10:00:00 3.7 8 Norte 17 Norte 0 908.7 -0.3 91
2019-12-04 09:00:00 3.3 8 Norte 16 Norte 0 908.7 -1 91
2019-12-04 08:00:00 2.9 6 Noroeste 16 Noroeste 0 909.1 -1 93
2019-12-04 07:00:00 2.7 7 Norte 20 Norte 0 909 -2 93
2019-12-04 06:00:00 2.4 6 Norte 15 Norte 0 909.7 -2.1 93
2019-12-04 05:00:00 2.2 6 Norte 12 Noroeste 0 910.1 -2.5 94
2019-12-04 04:00:00 2.3 6 Norte 17 Norte 0 911 -2.2 93
2019-12-04 03:00:00 2.3 6 Norte 16 Noroeste 0 911.8 -1.9 92
2019-12-04 02:00:00 2.3 6 Norte 13 Norte 0 912.6 -1.5 91
2019-12-04 01:00:00 2.3 4 Norte 12 Nordeste 0 913.2 -1 90
2019-12-04 00:00:00 2.2 5 Norte 14 Norte 0 913.7 -0.5 89
2019-12-03 23:00:00 2.3 5 Norte 12 Norte 0 914.1 0 88
2019-12-03 22:00:00 2.3 4 Noroeste 9 Norte 0 914.2 0.3 87
2019-12-03 21:00:00 2.2 4 Noroeste 10 Norte 0 914.2 0.5 88
2019-12-03 20:00:00 2.1 3 Noroeste 9 Norte 0 914.1 0.5 88
2019-12-03 19:00:00 2.7 3 Noroeste 10 Norte 0 913.9 0.2 84
2019-12-03 18:00:00 3.7 7 Norte 17 Nordeste 0 913.7 0 79
2019-12-03 17:00:00 4.9 3 Norte 18 Este 0 913.6 -0.6 75
2019-12-03 16:00:00 4.9 13 Este 25 Norte 0 913.7 -1.3 73
2019-12-03 15:00:00 4.9 9 Noroeste 19 Noroeste 0 913.7 -1.9 74
2019-12-03 14:00:00 5.3 6 Norte 14 Norte 0 914.2 -2 72
2019-12-03 13:00:00 4.1 5 Norte 10 Norte 0 915 -1.1 75
2019-12-03 12:00:00 3.3 4 Nordeste 13 Este 0 915.6 -0.5 77
2019-12-03 11:00:00 2.5 4 Nordeste 10 Nordeste 0 916.2 0.2 81
2019-12-03 10:00:00 1.8 5 Norte 19 Nordeste 0 916.1 0.2 84
2019-12-03 09:00:00 1.5 9 Nordeste 21 Nordeste 0 916.1 0.2 84
2019-12-03 08:00:00 1.4 5 Norte 15 Nordeste 0 916 -0.2 85
2019-12-03 07:00:00 1.1 4 Norte 7 Norte 0 915.9 -0.5 89
2019-12-03 06:00:00 0.7 6 Nordeste 12 Norte 0 915.9 -0.6 90
2019-12-03 05:00:00 -0.5 3 Noroeste 10 Nordeste 0 916.2 -0.3 93
2019-12-03 04:00:00 -0.2 4 Norte 16 Norte 0 916.4 -0.5 90
2019-12-03 03:00:00 0.2 5 Norte 13 Norte 0 916.5 -0.8 88
2019-12-03 02:00:00 0.8 5 Norte 17 Norte 0 916.5 -0.8 86
2019-12-03 01:00:00 2 5 Norte 16 Nordeste 0 916.9 0 82
2019-12-03 00:00:00 2.8 9 Norte 26 Nordeste 0 917.3 0.5 86
2019-12-02 23:00:00 3 10 Nordeste 25 Nordeste 0 917.3 0.6 85
2019-12-02 22:00:00 3.2 10 Norte 30 Norte 0 916.9 0.5 84
2019-12-02 21:00:00 4.2 18 Norte 40 Norte 0 916.8 0.9 84
2019-12-02 20:00:00 4.7 16 Norte 36 Nordeste 0 916.7 1.3 83
2019-12-02 19:00:00 5.4 13 Nordeste 33 Norte 0 916.4 1.2 79
2019-12-02 18:00:00 6.2 13 Norte 29 Nordeste 0 915.9 0.7 79
2019-12-02 17:00:00 6.9 10 Norte 20 Norte 0 915.4 0.2 78
2019-12-02 16:00:00 7 12 Norte 23 Nordeste 0 915.2 -0.2 76
2019-12-02 15:00:00 7.3 8 Norte 26 Nordeste 0 915.2 -0.6 74
2019-12-02 14:00:00 7.1 11 Norte 24 Norte 0 915.2 -0.7 75
2019-12-02 13:00:00 7.3 13 Norte 24 Norte 0 915.4 0.3 74
2019-12-02 12:00:00 6.3 8 Norte 22 Norte 0 915.8 1.2 83
2019-12-02 11:00:00 5.8 9 Norte 23 Nordeste 0 915.9 1.9 85
2019-12-02 10:00:00 5 12 Norte 23 Noroeste 0 915.1 1.5 89
2019-12-02 09:00:00 4.6 10 Norte 23 Norte 0 914.6 1.7 91
2019-12-02 08:00:00 4.7 10 Norte 19 Norte 0 914 1.4 89
2019-12-02 07:00:00 4.8 7 Norte 21 Norte 0 913.6 0.9 87
2019-12-02 06:00:00 4.9 8 Norte 15 Norte 0 912.9 0.3 89
2019-12-02 05:00:00 5 9 Norte 21 Norte 0 912.6 0 88
2019-12-02 04:00:00 5.2 9 Norte 22 Nordeste 0 912.7 0.4 88
2019-12-02 03:00:00 5.3 9 Norte 22 Norte 0 912.6 0.2 88
2019-12-02 02:00:00 5.1 5 Norte 17 Nordeste 0 912.6 0.4 91
2019-12-02 01:00:00 3.7 3 Norte 8 Norte 0 912.3 0.4 95
2019-12-02 00:00:00 3.4 3 Norte 6 Noroeste 0 912.4 0.9 95
2019-12-01 23:00:00 3.1 2 Oeste 5 Norte 0 912.2 1.1 95
2019-12-01 22:00:00 3 2 Noroeste 4 Este 0 911.9 1.5 94
2019-12-01 21:00:00 3 2 Sudoeste 7 Norte 0 911.5 1.3 93
2019-12-01 20:00:00 3.3 3 Noroeste 7 Este 0 911.1 1 91
2019-12-01 19:00:00 4.7 3 Norte 5 Oeste 0 910.4 0.3 86
2019-12-01 18:00:00 6.3 2 Norte 7 Norte 0 910.2 0.2 81
2019-12-01 17:00:00 8 4 Nordeste 12 Norte 0 910.1 -0.2 74
2019-12-01 16:00:00 8.6 4 Norte 9 Norte 0 910.1 -0.5 71
2019-12-01 15:00:00 8.5 6 Nordeste 12 Norte 0 910 -1.1 70
2019-12-01 14:00:00 9.5 5 Sur 10 Sudoeste 0 910.3 -1.3 68
2019-12-01 13:00:00 8.7 4 Sudeste 10 Sur 0 910.6 -0.8 71
2019-12-01 12:00:00 8.6 5 Sudeste 12 Sudeste 0 911.1 0 74
2019-12-01 11:00:00 7.1 5 Sur 12 Sudoeste 0 911.6 0.4 83
2019-12-01 10:00:00 4.6 6 Sudoeste 14 Sur 0 911.4 0.8 95
2019-12-01 09:00:00 4.1 5 Sur 11 Oeste 0 911.1 0.2 95
2019-12-01 08:00:00 4.2 3 Sudoeste 11 Oeste 0 911.2 -0.2 96
2019-12-01 07:00:00 3.9 5 Sur 9 Sur 0 910.6 -1.1 97
2019-12-01 06:00:00 3.5 3 Nordeste 5 Este 0 910.9 -1.5 95
2019-12-01 05:00:00 3.9 5 Sudeste 9 Sudoeste 0 911.4 -1.4 94
2019-12-01 04:00:00 4.9 5 Sudoeste 8 Sudoeste 0 911.7 -2 92
2019-12-01 03:00:00 4.9 5 Este 12 Este 0.4 912.4 -2 92
2019-12-01 02:00:00 5.1 5 Sudeste 9 Sudeste 0.2 912.8 -1.5 91
2019-12-01 01:00:00 5.4 3 Norte 8 Oeste 1 913.7 0.2 88
2019-12-01 00:00:00 5.8 0 Calma 31 Norte 1 914.4 1.3 89
2019-11-30 23:00:00 6.2 7 Norte 32 Noroeste 1.4 914.3 1 87
2019-11-30 22:00:00 8.8 9 Noroeste 26 Noroeste 0.2 913.5 0.4 90
2019-11-30 21:00:00 12.7 15 Oeste 30 Sudoeste 0 913.1 -0.1 69
2019-11-30 20:00:00 12.6 11 Sudoeste 21 Sudoeste 0 913.3 -0.5 67
2019-11-30 19:00:00 12.3 9 Sudoeste 28 Sudoeste 0 913.1 -1.7 66
2019-11-30 18:00:00 12.9 15 Sudoeste 26 Sudoeste 0 913.2 -1.8 64
2019-11-30 17:00:00 14 3 Este 24 Sudoeste 0 913.8 -1.6 62
2019-11-30 16:00:00 15.1 17 Oeste 39 Oeste 0 914.8 -1.6 58
2019-11-30 15:00:00 16.2 14 Oeste 33 Oeste 0 915 -2.5 56
2019-11-30 14:00:00 16.1 17 Oeste 36 Oeste 0 915.4 -2.8 55
2019-11-30 13:00:00 14.6 15 Oeste 34 Oeste 0 916.4 -1.7 62
2019-11-30 12:00:00 14.5 11 Sudoeste 21 Sudoeste 0 917.5 -0.6 63
2019-11-30 11:00:00 11.6 13 Sudoeste 21 Sudoeste 0 918.2 0.3 78
2019-11-30 10:00:00 8.9 6 Sur 14 Sudeste 0 918.1 0 87
2019-11-30 09:00:00 6.6 9 Sudeste 12 Sudeste 0 918.1 0 96
2019-11-30 08:00:00 5.9 9 Sudeste 12 Sudeste 0 917.9 -0.7 95
2019-11-30 07:00:00 6.5 4 Sudeste 13 Sudoeste 0 918.1 -0.3 93
2019-11-30 06:00:00 8 9 Sur 15 Sudeste 0 918.1 -0.9 92
2019-11-30 05:00:00 7.3 5 Sur 9 Sudeste 0 918.6 -0.8 93
2019-11-30 04:00:00 8.4 4 Sur 9 Sur 0 918.4 -1.1 92
2019-11-30 03:00:00 9 4 Sudoeste 9 Sudeste 0 919 -0.5 91
2019-11-30 02:00:00 9.6 6 Sur 11 Sudeste 0 919.4 -0.1 90
2019-11-30 01:00:00 9.7 4 Sur 6 Sur 0 919.5 0 89
2019-11-30 00:00:00 9.9 2 Noroeste 8 Sur 0 919.5 0.2 88
2019-11-29 23:00:00 10.3 4 Sudeste 7 Este 0 919.5 0.5 87
2019-11-29 22:00:00 10.3 3 Sur 10 Este 0 919.5 0.6 86
2019-11-29 21:00:00 11.1 4 Sudeste 8 Noroeste 0 919.3 0.6 84
2019-11-29 20:00:00 12.2 4 Noroeste 12 Oeste 0 919 0.9 79
2019-11-29 19:00:00 13 6 Noroeste 13 Oeste 0 918.9 1 75
2019-11-29 18:00:00 13.4 6 Oeste 12 Noroeste 0 918.7 1.1 71
2019-11-29 17:00:00 14.2 5 Oeste 25 Oeste 0 918.1 0.3 63
2019-11-29 16:00:00 15 8 Oeste 27 Oeste 0 917.9 -0.4 60
2019-11-29 15:00:00 14.9 6 Noroeste 29 Noroeste 0 917.6 -1.4 63
2019-11-29 14:00:00 15.2 6 Oeste 22 Oeste 0 917.8 -1.3 65
2019-11-29 13:00:00 14.6 8 Noroeste 24 Oeste 0 918.3 0.1 69
2019-11-29 12:00:00 13.5 12 Oeste 24 Oeste 0 919 1.4 74
2019-11-29 11:00:00 12.7 12 Oeste 24 Oeste 0 919.1 2.2 78
2019-11-29 10:00:00 11.1 10 Oeste 18 Oeste 0 918.2 1.6 85
2019-11-29 09:00:00 10.4 4 Oeste 10 Sudoeste 0 917.6 1.4 85
2019-11-29 08:00:00 10.1 5 Sudoeste 14 Oeste 0 916.9 1.1 85
2019-11-29 07:00:00 10.2 8 Sudoeste 15 Sudoeste 0 916.6 0.9 84
2019-11-29 06:00:00 10.2 2 Sudeste 12 Sudoeste 0 916.2 0.8 84
2019-11-29 05:00:00 10.2 5 Oeste 21 Oeste 0 915.8 0.7 84
2019-11-29 04:00:00 10.5 8 Oeste 18 Oeste 0 915.7 0.7 82
2019-11-29 03:00:00 10.5 8 Oeste 28 Oeste 0 915.4 0.6 80
2019-11-29 02:00:00 10.4 8 Oeste 22 Sudoeste 0 915.1 0.1 80
2019-11-29 01:00:00 10.5 13 Oeste 27 Sudoeste 0 915 0.2 77
2019-11-29 00:00:00 10.5 15 Sudoeste 24 Oeste 0 914.8 0.2 76
2019-11-28 23:00:00 10.4 9 Sudoeste 28 Sudoeste 0 915 0.4 76
2019-11-28 22:00:00 10.4 11 Sudoeste 17 Sudoeste 0 914.8 0.6 73
2019-11-28 21:00:00 9.9 9 Sudoeste 19 Sudoeste 0 914.6 0.5 73
2019-11-28 20:00:00 9.7 8 Sudoeste 16 Oeste 0 914.6 0.5 74
2019-11-28 19:00:00 10.2 3 Sudoeste 13 Sudoeste 0 914.2 0 71
2019-11-28 18:00:00 10.5 8 Sudoeste 24 Sudoeste 0 914.1 -0.1 70
2019-11-28 17:00:00 10.9 13 Sudoeste 30 Oeste 0 914.1 -0.4 68
2019-11-28 16:00:00 11.9 14 Oeste 31 Oeste 0 914.2 -0.7 62
2019-11-28 15:00:00 12.6 10 Noroeste 30 Oeste 0 914.2 -0.9 62
2019-11-28 14:00:00 11.8 14 Sudoeste 37 Noroeste 0 914.5 -0.6 66
2019-11-28 13:00:00 12.2 18 Oeste 34 Oeste 0 914.9 0.3 65
2019-11-28 12:00:00 12.3 14 Oeste 32 Oeste 0 915.1 1.1 66
2019-11-28 11:00:00 10.2 9 Oeste 23 Sudoeste 0 915.1 1.5 73
2019-11-28 10:00:00 8.7 10 Sudoeste 17 Sudoeste 0 914.6 1.4 77
2019-11-28 09:00:00 8.2 7 Oeste 31 Oeste 0 914 1 80
2019-11-28 08:00:00 7.1 14 Sudoeste 22 Oeste 0 913.6 0.8 83
2019-11-28 07:00:00 7.7 7 Sudoeste 16 Sudoeste 0 913.2 0.7 79
2019-11-28 06:00:00 8.6 8 Sudeste 15 Sudeste 0 913 1.2 77
2019-11-28 05:00:00 8.6 5 Sudoeste 15 Oeste 0 912.8 1.2 75
2019-11-28 04:00:00 8.5 9 Oeste 21 Oeste 0 912.5 0.6 76
2019-11-28 03:00:00 8.3 8 Sudoeste 14 Sudoeste 0 911.8 -0.5 78
2019-11-28 02:00:00 8.6 7 Sudeste 23 Sudoeste 0 911.6 -0.1 76
2019-11-28 01:00:00 8.6 9 Sudoeste 19 Sudoeste 0 911.9 0.1 76
2019-11-28 00:00:00 8.7 4 Sur 12 Sur 0 912.3 0.6 75
2019-11-27 23:00:00 8.7 6 Sudoeste 14 Oeste 0 911.7 0.3 75
2019-11-27 22:00:00 8.8 9 Oeste 21 Sudoeste 0 911.8 0.9 74
2019-11-27 21:00:00 9.6 8 Sudoeste 18 Sudoeste 0 911.7 0.9 69
2019-11-27 20:00:00 9.9 6 Sur 23 Sudoeste 0 911.4 1.2 67
2019-11-27 19:00:00 10.3 11 Sudoeste 21 Oeste 0 910.9 1.2 64
2019-11-27 18:00:00 10.2 6 Oeste 22 Oeste 0 910.8 1 65
2019-11-27 17:00:00 11.1 10 Oeste 35 Oeste 0 910.2 0.6 60
2019-11-27 16:00:00 12.4 20 Oeste 42 Oeste 0 909.7 -0.3 53
2019-11-27 15:00:00 13.4 13 Oeste 37 Oeste 0 909.8 -0.7 51
2019-11-27 14:00:00 13.4 14 Oeste 36 Oeste 0 909.6 -1.2 52
2019-11-27 06:00:00 9.8 7 Norte 21 Oeste 0 907.6 0.5 80
2019-11-27 05:00:00 10.5 6 Noroeste 39 Oeste 0 907.1 -0.1 78
2019-11-27 04:00:00 11.2 14 Oeste 33 Oeste 0 906.5 -1.2 76
2019-11-27 03:00:00 11.3 17 Oeste 40 Oeste 0 907.1 -0.1 73
2019-11-27 02:00:00 12.2 21 Sudoeste 43 Oeste 0 907.2 -0.3 63
2019-11-27 01:00:00 12.7 15 Oeste 47 Sudoeste 0 907.7 0 67
2019-11-27 00:00:00 13 13 Sudoeste 27 Sudoeste 0 907.2 -0.7 75
2019-11-26 23:00:00 12.3 7 Sudoeste 22 Sudoeste 0 907.5 -0.6 77
2019-11-26 22:00:00 13 14 Sudoeste 24 Sudoeste 0 907.7 -0.9 73
2019-11-26 21:00:00 12.9 11 Sur 33 Sudoeste 0 907.9 -1 71
2019-11-26 20:00:00 12.7 15 Sudoeste 27 Sudoeste 0 908.1 -0.5 71
2019-11-26 19:00:00 13.2 14 Sudoeste 30 Sur 0 908.6 -1 69
2019-11-26 18:00:00 13.8 14 Sudeste 24 Oeste 0 908.9 -1.2 66
2019-11-26 17:00:00 15 10 Sudoeste 26 Sudoeste 0 908.6 -1.7 62
2019-11-26 16:00:00 15.5 8 Oeste 35 Oeste 0 909.6 -1.4 61
2019-11-26 15:00:00 16 17 Oeste 41 Oeste 0 910.1 -2 60
2019-11-26 14:00:00 16.5 15 Oeste 36 Oeste 0 910.3 -2.4 60
2019-11-26 13:00:00 13.6 8 Sur 21 Sur 0 911 -2.2 65
2019-11-26 12:00:00 13 8 Sur 15 Sur 0 912.1 -0.8 64
2019-11-26 11:00:00 9.6 7 Sudoeste 17 Sudeste 0 912.7 0.1 79
2019-11-26 10:00:00 6.5 8 Sudeste 15 Sudeste 0 913.2 0.5 90
2019-11-26 09:00:00 3.8 10 Sudeste 16 Sudeste 0 912.9 -0.2 96
2019-11-26 08:00:00 3.1 5 Este 8 Nordeste 0 912.6 -0.7 94
2019-11-26 07:00:00 4.2 3 Sudoeste 15 Sudeste 0 912.7 -0.4 93
2019-11-26 06:00:00 4.3 6 Sudeste 13 Sudeste 0 913.1 -0.3 93
2019-11-26 05:00:00 5 10 Sudeste 14 Sudeste 0 913.3 -0.5 90
2019-11-26 04:00:00 7.1 3 Sudoeste 13 Noroeste 0 913.1 -0.8 90
2019-11-26 03:00:00 6.8 2 Noroeste 8 Norte 0 913.4 -0.8 94
2019-11-26 02:00:00 5.8 3 Norte 8 Noroeste 0 913.8 -0.4 95
2019-11-26 01:00:00 6.7 0 Calma 8 Sudoeste 0 913.9 -0.4 92
2019-11-26 00:00:00 7.3 6 Sur 10 Sur 0 914.2 0.1 90
2019-11-25 23:00:00 7.9 4 Sur 8 Sudeste 0 914.2 0.4 87
2019-11-25 22:00:00 8.9 4 Sudoeste 9 Sudeste 0 914.3 1 84
2019-11-25 21:00:00 10.1 6 Sudoeste 10 Oeste 0 914.1 1.2 79
2019-11-25 20:00:00 10.4 5 Oeste 13 Oeste 0 913.8 1.2 79
2019-11-25 19:00:00 11.4 4 Oeste 13 Oeste 0 913.3 0.6 73
2019-11-25 18:00:00 12.1 6 Oeste 20 Oeste 0 912.9 0.5 69
2019-11-25 17:00:00 12.6 9 Oeste 22 Oeste 0 912.6 0.2 67
2019-11-25 16:00:00 13.1 7 Oeste 33 Oeste 0 912.7 0.6 64
2019-11-25 15:00:00 13.3 10 Oeste 28 Oeste 0 912.4 -0.1 65
2019-11-25 14:00:00 13 10 Noroeste 30 Noroeste 0 912.4 -0.6 67
2019-11-25 13:00:00 14.1 9 Oeste 28 Oeste 0 912.1 -0.9 63
2019-11-25 12:00:00 12.9 10 Oeste 25 Oeste 0 912.5 0 70
2019-11-25 11:00:00 11.7 9 Oeste 23 Oeste 0 913 1.1 75
2019-11-25 10:00:00 9.7 8 Noroeste 23 Noroeste 0 913 1.5 83
2019-11-25 09:00:00 8.7 6 Sudoeste 13 Oeste 0 912.5 1.2 86
2019-11-25 08:00:00 8.5 9 Oeste 26 Oeste 0 911.9 0.7 85
2019-11-25 07:00:00 8.4 4 Oeste 27 Oeste 0 911.5 0.1 85
2019-11-25 06:00:00 8.1 7 Oeste 27 Oeste 0 911.3 -0.3 86
2019-11-25 05:00:00 6.8 3 Sur 14 Oeste 0.2 911.2 -0.4 90
2019-11-25 04:00:00 6.1 4 Sudoeste 13 Sudoeste 0 911.4 -0.5 92
2019-11-25 03:00:00 5.8 2 Nordeste 15 Este 0 911.6 -0.7 85
2019-11-25 02:00:00 5.5 4 Sur 9 Sudeste 0 911.6 -1 82
2019-11-25 01:00:00 6.4 5 Sudoeste 12 Noroeste 0 911.9 -0.5 74
2019-11-25 00:00:00 6 6 Este 18 Oeste 0 912.3 -0.1 79
2019-11-24 23:00:00 5 6 Sur 16 Sudoeste 0 912.6 0.7 80
2019-11-24 22:00:00 4.5 6 Sudeste 9 Sudeste 0 912.4 0.7 78
2019-11-24 21:00:00 4.7 3 Sudeste 14 Oeste 0 912.4 1 78
2019-11-24 20:00:00 4.9 0 Calma 9 Sudoeste 0 911.9 0.5 78
2019-11-24 19:00:00 5.8 4 Oeste 8 Noroeste 0 911.7 0.7 73
2019-11-24 18:00:00 6.9 3 Sudeste 12 Norte 0 911.4 0 73
2019-11-24 17:00:00 7.8 6 Norte 17 Nordeste 0 911.4 -0.2 67
2019-11-24 16:00:00 9.3 7 Norte 22 Norte 0 911 -0.8 62
2019-11-24 15:00:00 9.5 10 Norte 24 Oeste 0 911.4 -1.1 62
2019-11-24 14:00:00 8.8 8 Noroeste 27 Oeste 0 911.6 -1.2 67
2019-11-24 13:00:00 7.8 15 Noroeste 31 Noroeste 0 911.8 -0.7 68
2019-11-24 12:00:00 7 12 Noroeste 25 Noroeste 0 912.5 0.9 69
2019-11-24 11:00:00 6.3 14 Noroeste 29 Noroeste 0 912.8 1.8 72
2019-11-24 10:00:00 5 7 Noroeste 17 Noroeste 0 912.5 2.2 78
2019-11-24 09:00:00 4.1 5 Noroeste 19 Noroeste 0 911.6 1.7 80
2019-11-24 08:00:00 4.2 8 Noroeste 21 Noroeste 0 911 2 80
2019-11-24 07:00:00 4.5 4 Noroeste 14 Noroeste 0 910.3 1.6 79
2019-11-24 06:00:00 4 3 Norte 14 Norte 0 909.9 1.4 80
2019-11-24 05:00:00 4.5 8 Norte 27 Norte 0 909 0.8 77
2019-11-24 04:00:00 5.4 11 Noroeste 33 Noroeste 0 908.7 0.3 76
2019-11-24 03:00:00 5.1 9 Noroeste 31 Noroeste 0 908.5 0.9 76
2019-11-24 02:00:00 5.1 10 Noroeste 21 Noroeste 0 908.2 1 77
2019-11-24 01:00:00 5.7 9 Noroeste 31 Noroeste 0 908.4 1.9 75
2019-11-24 00:00:00 5.3 10 Noroeste 29 Noroeste 0 907.6 1.6 75
2019-11-23 23:00:00 5.2 5 Noroeste 18 Noroeste 0 907.2 2.1 73
2019-11-23 22:00:00 5.7 6 Noroeste 21 Noroeste 0 906.5 2.2 72
2019-11-23 21:00:00 5.9 10 Noroeste 25 Noroeste 0 906 2.8 71
2019-11-23 20:00:00 6.2 13 Noroeste 29 Noroeste 0 905.1 3 69
2019-11-23 19:00:00 6.6 14 Noroeste 35 Oeste 0 904.3 3.2 67
2019-11-23 18:00:00 7.4 14 Noroeste 40 Noroeste 0 903.2 2.6 64
2019-11-23 17:00:00 8.4 19 Noroeste 53 Noroeste 0 902.1 1.8 55
2019-11-23 16:00:00 9.2 20 Noroeste 49 Noroeste 0 901.1 1.6 55
2019-11-23 15:00:00 7.6 16 Noroeste 49 Noroeste 0 900.6 1.6 63
2019-11-23 14:00:00 7.8 18 Noroeste 50 Noroeste 0 900.3 2.2 64
2019-11-23 13:00:00 7.1 23 Noroeste 48 Oeste 0 899.5 2.5 66
2019-11-23 12:00:00 6.5 24 Noroeste 53 Oeste 0 899 3.3 69
2019-11-23 11:00:00 5.6 15 Noroeste 42 Noroeste 0 898.1 3.6 81
2019-11-23 10:00:00 5.1 15 Noroeste 35 Noroeste 0.2 897 3.7 86
2019-11-23 09:00:00 3.9 5 Norte 21 Noroeste 0.6 895.7 3.1 91
2019-11-23 08:00:00 3.8 8 Noroeste 28 Oeste 3 894.5 2.2 90
2019-11-23 07:00:00 5.9 9 Oeste 31 Oeste 0 893.3 1.5 82
2019-11-23 06:00:00 5.9 8 Oeste 17 Oeste 0 892.6 0.7 81
2019-11-23 05:00:00 5.9 5 Sudoeste 31 Oeste 0 892.3 0.7 83
2019-11-23 04:00:00 6.7 17 Oeste 33 Oeste 0.2 891.8 -0.5 82
2019-11-23 03:00:00 7.1 13 Sudoeste 35 Oeste 0.2 891.9 -0.5 82
2019-11-23 02:00:00 7.2 13 Sudoeste 28 Sudoeste 0 891.6 -0.8 81
2019-11-23 01:00:00 7.7 14 Sudoeste 31 Sudoeste 0 892.3 -0.3 81
2019-11-23 00:00:00 7.2 8 Sur 15 Sur 0 892.4 0.9 89
2019-11-22 23:00:00 7.5 8 Sudeste 28 Sudoeste 0 892.4 1 84
2019-11-22 22:00:00 8.8 17 Oeste 59 Oeste 1 892.6 1.1 82
2019-11-22 21:00:00 10.3 20 Sudoeste 36 Sur 0 891.5 -1.2 73
2019-11-22 20:00:00 10.5 18 Sudoeste 35 Sudoeste 0 891.4 -1.7 81
2019-11-22 19:00:00 10.3 15 Sur 37 Sur 0 891.5 -2.5 82
2019-11-22 18:00:00 9.9 13 Sur 32 Sur 0.4 892.7 -2 86
2019-11-22 17:00:00 10.4 19 Sur 41 Sur 0 893.1 -2.7 82
2019-11-22 16:00:00 10 19 Sur 44 Sur 1 894 -3.3 85
2019-11-22 15:00:00 11.1 23 Sur 49 Sudoeste 0 894.7 -4.3 72
2019-11-22 14:00:00 11.1 23 Sur 45 Sur 0 895.8 -4.6 72
2019-11-22 13:00:00 10.8 21 Sur 42 Sur 0 897.3 -3.8 72
2019-11-22 12:00:00 10.2 15 Sur 34 Sur 0 899 -3 73
2019-11-22 11:00:00 9.1 14 Sur 28 Sur 0 900.4 -2.1 78
2019-11-22 10:00:00 6 5 Sudoeste 9 Sudoeste 0 901.1 -2.1 91
2019-11-22 09:00:00 4.7 2 Este 9 Sudeste 0 902 -1.8 92
2019-11-22 08:00:00 4 3 Sur 10 Sudeste 0 902.5 -1.9 93
2019-11-22 07:00:00 3.7 4 Sur 9 Este 0 903.2 -1.6 93
2019-11-22 06:00:00 3.6 5 Sudeste 10 Sudeste 0 903.8 -1.2 93
2019-11-22 05:00:00 2.9 5 Sudeste 8 Sudeste 0 904.4 -1.1 94
2019-11-22 04:00:00 2.4 2 Este 8 Sudeste 0 904.8 -1.4 92
2019-11-22 03:00:00 3.4 6 Sur 10 Sudeste 0 905 -1.5 88
2019-11-22 02:00:00 4.3 9 Sudeste 12 Sudeste 0 905.5 -1.3 88
2019-11-22 01:00:00 5.4 4 Sudeste 9 Sudeste 0 906.2 -0.5 87
2019-11-22 00:00:00 5.2 4 Sudeste 7 Sudeste 0 906.5 0 87
2019-11-21 23:00:00 6.5 4 Sur 13 Sudeste 0 906.8 0.1 78
2019-11-21 22:00:00 6.2 6 Sudeste 11 Sudeste 0 906.7 0.3 81
2019-11-21 21:00:00 6.1 6 Sudeste 18 Oeste 0 906.5 0.5 82
2019-11-21 20:00:00 7.1 5 Noroeste 16 Oeste 0 906.7 0.9 76
2019-11-21 19:00:00 7.5 2 Sudeste 9 Oeste 0 906.4 0.8 76
2019-11-21 18:00:00 8.6 9 Oeste 19 Oeste 0 906 0.4 69
2019-11-21 17:00:00 9.3 8 Oeste 21 Sudoeste 0 905.8 0 64
2019-11-21 16:00:00 9.3 9 Oeste 22 Sudoeste 0 905.6 -0.6 65
2019-11-21 15:00:00 9.4 13 Oeste 28 Oeste 0 905.6 -1.2 64
2019-11-21 14:00:00 9.6 10 Oeste 23 Oeste 0 905.8 -1.1 64
2019-11-21 13:00:00 9.3 12 Sudoeste 23 Sudoeste 0 906.2 -0.8 67
2019-11-21 12:00:00 8 5 Sudoeste 10 Sudoeste 0 906.8 -0.3 75
2019-11-21 11:00:00 6.5 5 Sur 10 Sur 0 906.9 0.2 82
2019-11-21 10:00:00 4.6 4 Este 9 Sudoeste 0 907 0.7 87
2019-11-21 09:00:00 3.8 6 Sudoeste 12 Sudoeste 0 907.1 0.9 87
2019-11-21 08:00:00 -- -- -- -- -- -- -- -- --
2019-11-21 07:00:00 -- -- -- -- -- -- -- -- --
2019-11-21 06:00:00 -- -- -- -- -- -- -- -- --
2019-11-21 05:00:00 -- -- -- -- -- -- -- -- --
2019-11-21 04:00:00 -- -- -- -- -- -- -- -- --
2019-11-21 03:00:00 -- -- -- -- -- -- -- -- --
2019-11-21 02:00:00 -- -- -- -- -- -- -- -- --
2019-11-21 01:00:00 -- -- -- -- -- -- -- -- --
2019-11-21 00:00:00 -- -- -- -- -- -- -- -- --
2019-11-20 23:00:00 -- -- -- -- -- -- -- -- --
2019-11-20 22:00:00 -- -- -- -- -- -- -- -- --
2019-11-20 21:00:00 -- -- -- -- -- -- -- -- --
2019-11-20 20:00:00 -- -- -- -- -- -- -- -- --
2019-11-20 19:00:00 7.4 5 Sudeste 17 Oeste 0 906.3 -0.1 63
2019-11-20 18:00:00 8.1 3 Noroeste 12 Sudoeste 0 906.4 -0.3 54
2019-11-20 17:00:00 9.9 0 Calma 11 Oeste 0 906.3 -1.1 45
2019-11-20 16:00:00 11 5 Sur 12 Sudoeste 0 906.4 -2.1 38
2019-11-20 15:00:00 10.5 6 Sudoeste 17 Sudoeste 0 906.7 -2.9 40
2019-11-20 14:00:00 9.9 8 Sur 16 Sudeste 0 907.4 -2.9 51
2019-11-20 13:00:00 7.3 5 Sudeste 14 Sudeste 0 908.5 -1.9 65
2019-11-20 12:00:00 4.4 6 Sur 13 Sur 0 909.6 -0.8 77
2019-11-20 11:00:00 2.4 7 Sur 13 Sudoeste 0 910.3 0 81
2019-11-20 10:00:00 0.7 4 Sur 7 Sudeste 0 910.4 0 89
2019-11-20 09:00:00 -0.9 5 Sudeste 7 Sudeste 0 910.4 -0.2 93
2019-11-20 08:00:00 -1.3 7 Sudeste 11 Sudeste 0 910.3 -0.3 92
2019-11-20 07:00:00 -1.2 9 Sudeste 11 Sudeste 0 910.4 -0.6 92
2019-11-20 06:00:00 -0.7 3 Sur 8 Sur 0 910.6 -0.9 89
2019-11-20 05:00:00 -0.3 5 Sur 13 Sudeste 0 910.6 -1.1 89
2019-11-20 04:00:00 0.1 9 Sudeste 13 Sudeste 0 911 -1.2 90
2019-11-20 03:00:00 0.1 6 Sudeste 10 Sudeste 0 911.5 -1 91
2019-11-20 02:00:00 0.6 6 Sur 13 Sur 0 911.7 -1.3 89
2019-11-20 01:00:00 1.1 8 Sur 14 Sur 0 912.2 -1 89
2019-11-20 00:00:00 1.5 2 Sur 8 Sudeste 0 912.5 -0.6 87
2019-11-19 23:00:00 2 4 Sudeste 8 Sudeste 0 913 0.2 87
2019-11-19 22:00:00 2.3 7 Sudeste 9 Sudeste 0 913.2 0.6 87
2019-11-19 21:00:00 1.6 5 Sur 10 Sur 0 913.1 0.6 86
2019-11-19 20:00:00 2.3 4 Sudeste 7 Sur 0 912.8 0.5 82
2019-11-19 19:00:00 3.9 0 Calma 4 Sudeste 0 912.6 0.1 78
2019-11-19 18:00:00 5.9 3 Nordeste 9 Noroeste 0 912.5 -0.3 67
2019-11-19 17:00:00 8.1 4 Noroeste 16 Oeste 0 912.3 -0.9 57
2019-11-19 16:00:00 9.1 6 Noroeste 17 Noroeste 0 912.5 -1.3 54
2019-11-19 15:00:00 8.9 6 Noroeste 19 Noroeste 0 912.8 -2.1 53
2019-11-19 14:00:00 8 9 Noroeste 22 Noroeste 0 913.2 -2.1 58
2019-11-19 13:00:00 7.8 11 Noroeste 24 Noroeste 0 913.8 -1.6 60
2019-11-19 12:00:00 5 10 Noroeste 21 Noroeste 0 914.9 -0.2 70
2019-11-19 11:00:00 3.5 3 Nordeste 10 Sudeste 0 915.3 0.7 76
2019-11-19 10:00:00 0.9 4 Sudeste 10 Sudeste 0 915.4 1.1 88
2019-11-19 09:00:00 -2.3 0 Calma 5 Sur 0 915.1 0.9 96
2019-11-19 08:00:00 -3.5 2 Noroeste 5 Nordeste 0 914.6 0.6 93
2019-11-19 07:00:00 -3.1 2 Oeste 5 Oeste 0 914.3 -0.2 92
2019-11-19 06:00:00 -2.1 0 Calma 9 Este 0 914.2 -0.4 90
2019-11-19 05:00:00 -1.1 9 Este 11 Este 0 914 -0.8 90
2019-11-19 04:00:00 -1.3 2 Sur 6 Sudeste 0 914.5 -0.5 90
2019-11-19 03:00:00 -1.1 4 Sudeste 11 Sudeste 0 914.6 -0.3 91
2019-11-19 02:00:00 -1 8 Sur 12 Sur 0 914.8 0 92
2019-11-19 01:00:00 -0.8 3 Sudeste 8 Sur 0 915 0.5 91
2019-11-19 00:00:00 0.1 3 Norte 6 Norte 0 914.9 0.8 90
2019-11-18 23:00:00 1 3 Norte 7 Sudeste 0 914.8 1.3 91
2019-11-18 22:00:00 1.1 3 Norte 10 Norte 0 914.5 1.4 89
2019-11-18 21:00:00 1.3 6 Sur 10 Sudeste 0 914.1 1.4 88
2019-11-18 20:00:00 2.9 2 Noroeste 17 Norte 0 913.5 1.2 82
2019-11-18 19:00:00 4.1 7 Norte 17 Noroeste 0 913.1 1.4 80
2019-11-18 18:00:00 4.6 6 Noroeste 17 Nordeste 0 912.7 1.3 76
2019-11-18 17:00:00 5.5 8 Norte 24 Norte 0 912.3 1.3 70
2019-11-18 16:00:00 6.2 11 Norte 23 Norte 0 911.7 0.9 67
2019-11-18 15:00:00 6.6 12 Norte 32 Norte 0 911.4 0.4 66
2019-11-18 14:00:00 6.8 8 Norte 28 Norte 0 911 0.1 66
2019-11-18 13:00:00 6.2 8 Noroeste 27 Norte 0 910.8 0.4 68
2019-11-18 12:00:00 5.1 11 Noroeste 26 Noroeste 0 911 1.1 78
2019-11-18 11:00:00 3.6 6 Norte 19 Noroeste 0 910.9 1.7 89
2019-11-18 10:00:00 3.4 9 Noroeste 18 Norte 0 910.4 1.4 88
2019-11-18 09:00:00 2.9 5 Noroeste 13 Noroeste 0 909.9 1.4 93
2019-11-18 08:00:00 2.7 3 Oeste 10 Norte 0 909.2 1.2 95
2019-11-18 07:00:00 2.9 2 Norte 13 Norte 0.2 909 1.5 94
2019-11-18 06:00:00 3 7 Norte 20 Noroeste 0 908.5 0.9 94
2019-11-18 05:00:00 3.6 5 Noroeste 16 Noroeste 0 908 0.5 90
2019-11-18 04:00:00 3.6 8 Noroeste 20 Noroeste 0 907.5 0.2 88
2019-11-18 03:00:00 3.3 3 Noroeste 8 Norte 0 907.6 0.6 89
2019-11-18 02:00:00 2.7 4 Oeste 10 Oeste 0 907.5 0.4 93
2019-11-18 01:00:00 3.1 0 Calma 10 Oeste 0 907.3 -0.1 92
2019-11-18 00:00:00 4.4 4 Oeste 15 Este 0 907 -0.8 88
2019-11-17 23:00:00 4.9 10 Este 18 Oeste 0 907.1 -0.6 91
2019-11-17 22:00:00 5.6 6 Sudoeste 20 Oeste 0.6 907.4 -0.6 90
2019-11-17 21:00:00 5.5 5 Sudoeste 14 Sudoeste 0.2 907.8 -0.3 90
2019-11-17 20:00:00 5.5 7 Sur 13 Sudeste 0.2 907.7 -0.6 89
2019-11-17 19:00:00 5.7 3 Este 14 Oeste 0.4 908 -0.4 88
2019-11-17 18:00:00 6.3 5 Sudoeste 16 Sudoeste 0 908.1 -0.4 80
2019-11-17 17:00:00 6.6 4 Noroeste 23 Oeste 0 908.3 -0.2 80
2019-11-17 16:00:00 6.7 10 Oeste 25 Oeste 1.2 908.4 -1.1 85
2019-11-17 15:00:00 7.4 10 Oeste 31 Oeste 0.4 908.5 -1.7 79
2019-11-17 14:00:00 9 12 Oeste 28 Oeste 0 908.5 -2.6 63
2019-11-17 13:00:00 7.7 12 Oeste 29 Sudoeste 0 909.5 -1.7 63
2019-11-17 12:00:00 8 10 Sudoeste 24 Oeste 0 910.2 -1 60
2019-11-17 11:00:00 5.8 8 Oeste 28 Sudoeste 0 911.1 0 67
2019-11-17 10:00:00 3.6 4 Noroeste 13 Sudoeste 0 911.2 -0.2 72
2019-11-17 09:00:00 1.6 3 Este 12 Este 0 911.2 -0.2 81
2019-11-17 08:00:00 0.4 6 Sur 13 Sudeste 0 911.1 -0.2 84
2019-11-17 07:00:00 -0.3 5 Sudeste 10 Sudeste 0 911.4 -0.2 87
2019-11-17 06:00:00 -0.3 5 Sudeste 10 Sudeste 0 911.4 -0.2 86
2019-11-17 05:00:00 0.8 6 Noroeste 18 Noroeste 0 911.3 -0.5 82
2019-11-17 04:00:00 1.1 5 Noroeste 18 Noroeste 0 911.6 -0.4 80
2019-11-17 03:00:00 0.9 4 Norte 11 Norte 0 911.6 -0.7 81
2019-11-17 02:00:00 1.1 3 Nordeste 8 Nordeste 0 911.8 -0.4 80
2019-11-17 01:00:00 2.3 5 Oeste 14 Oeste 0 912 -0.5 76
2019-11-17 00:00:00 3.4 6 Oeste 18 Noroeste 0 912.3 0 70
2019-11-16 23:00:00 3.6 5 Oeste 18 Noroeste 0 912.2 0.1 70
2019-11-16 22:00:00 3.6 4 Norte 13 Norte 0 912.5 0.7 70
2019-11-16 21:00:00 2.6 2 Noroeste 12 Noroeste 0 912.3 0.6 75
2019-11-16 20:00:00 2.7 3 Sudoeste 9 Noroeste 0 912.1 0.5 76
2019-11-16 19:00:00 3.7 4 Oeste 17 Oeste 0 911.8 0.5 72
2019-11-16 18:00:00 5.1 12 Noroeste 24 Noroeste 0 911.7 0.9 66
2019-11-16 17:00:00 5.2 12 Noroeste 27 Noroeste 0 911.6 0.6 68
2019-11-16 16:00:00 5.9 9 Noroeste 26 Noroeste 0 911.3 0.3 64
2019-11-16 15:00:00 6 8 Noroeste 23 Noroeste 0 910.8 -0.8 63
2019-11-16 14:00:00 6.8 11 Noroeste 28 Noroeste 0 911 -0.2 61
2019-11-16 13:00:00 6 8 Noroeste 24 Norte 0 911 0.2 61
2019-11-16 12:00:00 4.8 6 Noroeste 17 Oeste 0 911.6 1.3 73
2019-11-16 11:00:00 3.9 3 Noroeste 9 Este 0 911.2 1.6 74
2019-11-16 10:00:00 1.9 4 Norte 8 Nordeste 0 910.8 2 82
2019-11-16 09:00:00 0.1 2 Sur 5 Sudeste 0 910.3 2.7 95
2019-11-16 08:00:00 0 3 Sudoeste 6 Oeste 0 909.6 2.4 93
2019-11-16 07:00:00 0.7 3 Noroeste 6 Noroeste 0 908.8 1.8 94
2019-11-16 06:00:00 1.3 4 Norte 15 Noroeste 0 907.6 1.3 91
2019-11-16 05:00:00 2.3 6 Noroeste 15 Noroeste 0 907.2 1.7 90
2019-11-16 04:00:00 2.4 7 Norte 13 Norte 0 907 1.3 90
2019-11-16 03:00:00 2 2 Norte 6 Noroeste 0 906.3 1 92
2019-11-16 02:00:00 2.3 3 Noroeste 8 Sudoeste 0 905.5 0.8 87
2019-11-16 01:00:00 2.6 0 Calma 10 Noroeste 0 905.7 1.3 87
2019-11-16 00:00:00 2.6 3 Noroeste 20 Noroeste 0 905.3 1.5 85
2019-11-15 23:00:00 3.3 8 Noroeste 20 Noroeste 0 904.7 1.3 82
2019-11-15 22:00:00 3.7 8 Noroeste 18 Noroeste 0 904.4 1.5 81
2019-11-15 21:00:00 3.6 8 Noroeste 21 Oeste 0 903.8 1.3 83
2019-11-15 20:00:00 3.8 6 Noroeste 19 Norte 0 903.4 1.6 80
2019-11-15 19:00:00 3.6 3 Sudoeste 35 Noroeste 0.6 902.9 1.5 87
2019-11-15 18:00:00 5.4 7 Noroeste 31 Noroeste 0 902.5 1.2 71
2019-11-15 17:00:00 6.3 9 Noroeste 33 Noroeste 0 901.8 0.9 65
2019-11-15 16:00:00 6.8 12 Noroeste 33 Noroeste 0 901.4 0.7 61
2019-11-15 15:00:00 6.2 14 Noroeste 41 Oeste 0 901.3 0.2 63
2019-11-15 14:00:00 7.3 14 Noroeste 37 Oeste 0 900.9 -0.6 61
2019-11-15 13:00:00 6.7 14 Noroeste 35 Oeste 0.2 900.7 -0.7 66
2019-11-15 12:00:00 5.8 12 Noroeste 30 Noroeste 0 901.1 -0.4 69
2019-11-15 11:00:00 4.4 8 Noroeste 26 Oeste 0 901.5 0.6 74
2019-11-15 10:00:00 3.3 9 Oeste 21 Oeste 0 901.4 0.8 79
2019-11-15 09:00:00 2.2 4 Oeste 13 Norte 0 901.5 1 84
2019-11-15 08:00:00 1.4 0 Calma 7 Oeste 0 900.9 0.8 83
2019-11-15 07:00:00 1 4 Norte 12 Noroeste 0 900.6 0.6 82
2019-11-15 06:00:00 1.7 7 Noroeste 27 Oeste 0 900.5 0.7 79
2019-11-15 05:00:00 2.4 8 Noroeste 20 Noroeste 0 900.1 0.5 83
2019-11-15 04:00:00 2.3 3 Norte 20 Noroeste 0 900 0.6 88
2019-11-15 03:00:00 2.6 8 Noroeste 25 Noroeste 0 899.8 0.8 83
2019-11-15 02:00:00 2.7 8 Noroeste 21 Noroeste 0 899.6 1.3 81
2019-11-15 01:00:00 2.6 8 Noroeste 24 Norte 0 899.4 1.5 82
2019-11-15 00:00:00 2.5 8 Noroeste 32 Noroeste 0 899 1.3 81
2019-11-14 23:00:00 2.7 10 Noroeste 25 Noroeste 0 898.3 0.6 82
2019-11-14 22:00:00 3.2 8 Sudoeste 17 Sudoeste 0.2 897.9 0.8 87
2019-11-14 21:00:00 3.8 8 Sudoeste 22 Oeste 0 897.7 0 81
2019-11-14 20:00:00 4.1 17 Sudoeste 32 Oeste 0 897.7 0.1 73
2019-11-14 19:00:00 4.4 3 Oeste 12 Oeste 0 897.1 -0.6 72
2019-11-14 18:00:00 5.5 9 Oeste 26 Oeste 0 897.7 -0.5 63
2019-11-14 17:00:00 6.8 9 Oeste 30 Oeste 0 897.6 -1 56
2019-11-14 16:00:00 7.5 15 Oeste 35 Oeste 0 897.7 -1.5 53
2019-11-14 15:00:00 6.9 10 Noroeste 42 Noroeste 0 898.2 -2.4 54
2019-11-14 14:00:00 7 15 Noroeste 35 Oeste 0 898.6 -2.6 55
2019-11-14 13:00:00 6.2 10 Noroeste 23 Noroeste 0 899.2 -2.8 68
2019-11-14 12:00:00 3.8 6 Sur 13 Sur 0 900.6 -1.2 90
2019-11-14 11:00:00 2.9 4 Sudoeste 17 Sur 0 901.2 1.8 93
2019-11-14 10:00:00 2.6 6 Norte 30 Noroeste 0.4 902 2.1 93
2019-11-14 09:00:00 2.8 13 Noroeste 62 Oeste 4.8 901.8 1.3 91
2019-11-14 08:00:00 7.8 18 Oeste 46 Oeste 0 899.4 -2.2 74
2019-11-14 07:00:00 8.4 21 Oeste 42 Oeste 0 899.9 -2.9 68
2019-11-14 06:00:00 8.5 20 Oeste 36 Oeste 0 900.5 -3.1 68
2019-11-14 05:00:00 8.5 10 Oeste 32 Oeste 0 901.6 -3 76
2019-11-14 04:00:00 7.2 7 Oeste 18 Sudoeste 0 902.8 -2.9 87
2019-11-14 03:00:00 3.5 2 Oeste 9 Sudoeste 0 903.6 -2.9 91
2019-11-14 02:00:00 4.3 3 Sudeste 14 Sudeste 0 904.6 -2.9 88
2019-11-14 01:00:00 5.1 10 Sudeste 15 Sudeste 0 905.7 -2.7 88
2019-11-14 00:00:00 3.4 5 Este 12 Sudoeste 0 906.5 -2.5 90
2019-11-13 23:00:00 3.7 3 Oeste 13 Sudeste 0 907.5 -2.2 88
2019-11-13 22:00:00 3.8 4 Sudeste 7 Sudeste 0 908.4 -1.5 88
2019-11-13 21:00:00 5.6 0 Calma 10 Sudeste 0 909 -1.1 81
2019-11-13 20:00:00 7.3 6 Sur 12 Sudoeste 0 909.7 0.2 75
2019-11-13 19:00:00 7.8 3 Oeste 10 Noroeste 0 909.9 0.4 73
2019-11-13 18:00:00 8.9 3 Sudoeste 10 Norte 0 910.1 1 62
2019-11-13 17:00:00 10.6 5 Norte 20 Noroeste 0 909.5 0.6 52
2019-11-13 16:00:00 11.6 10 Noroeste 28 Noroeste 0 909.5 0.4 51
2019-11-13 15:00:00 11.3 9 Noroeste 28 Norte 0 909.1 0.2 60
2019-11-13 14:00:00 10.9 12 Norte 32 Noroeste 0 908.9 0.5 63
2019-11-13 13:00:00 9.6 7 Norte 25 Noroeste 0 909.1 1.9 76
2019-11-13 12:00:00 9 8 Norte 22 Noroeste 0 908.9 3.3 81
2019-11-13 11:00:00 7.5 6 Noroeste 19 Noroeste 0 908.4 4.7 90
2019-11-13 10:00:00 6.8 7 Norte 29 Norte 0.2 907.2 4.1 93
2019-11-13 09:00:00 7.3 12 Norte 27 Norte 0.8 905.6 2.1 97
2019-11-13 08:00:00 6.8 2 Sur 9 Norte 1.8 903.7 0.2 98
2019-11-13 07:00:00 6.7 3 Sudoeste 9 Sudeste 0.8 903.1 -1 97
2019-11-13 06:00:00 6 7 Norte 12 Nordeste 1.8 903.5 -1.4 97
2019-11-13 05:00:00 5.9 2 Norte 3 Oeste 1.8 903.5 -2 96
2019-11-13 04:00:00 6.3 2 Sudoeste 8 Sudeste 2.6 904.1 -2 94
2019-11-13 03:00:00 6.1 4 Sudeste 10 Sur 1.8 904.9 -2.6 93
2019-11-13 02:00:00 6.3 6 Sudeste 9 Sudeste 0 905.5 -3.2 89
2019-11-13 01:00:00 6.1 5 Sur 11 Sudeste 0 906.1 -2.9 87
2019-11-13 00:00:00 6 7 Sur 10 Sur 0.2 907.5 -1.5 85
2019-11-12 23:00:00 6.2 5 Sudoeste 9 Sudoeste 0.4 908.7 -0.6 83
2019-11-12 22:00:00 6.6 3 Noroeste 19 Noroeste 0 909 -0.6 77
2019-11-12 21:00:00 6.6 5 Noroeste 26 Oeste 0 909 -0.7 72
2019-11-12 20:00:00 6.5 9 Oeste 24 Noroeste 0 909.3 -0.9 71
2019-11-12 19:00:00 6.2 4 Noroeste 26 Noroeste 0 909.6 -0.9 72
2019-11-12 18:00:00 7.6 10 Noroeste 31 Oeste 0 909.7 -1.2 68
2019-11-12 17:00:00 8.7 8 Noroeste 27 Noroeste 0 910.2 -1.6 63
2019-11-12 16:00:00 10.6 12 Noroeste 27 Noroeste 0 910.5 -1.6 55
2019-11-12 15:00:00 9.6 10 Noroeste 26 Noroeste 0 910.9 -2.1 56
2019-11-12 14:00:00 8.2 12 Noroeste 24 Oeste 0 911.8 -1.6 65
2019-11-12 13:00:00 7.9 5 Noroeste 29 Noroeste 0 912.1 -1.4 72
2019-11-12 12:00:00 7.6 9 Noroeste 23 Noroeste 0 913 -1 73
2019-11-12 11:00:00 5.5 7 Noroeste 19 Noroeste 0 913.4 0 82
2019-11-12 10:00:00 4 3 Sudeste 6 Este 0.2 913.5 0.1 88
2019-11-12 09:00:00 2.6 3 Sur 7 Sudeste 0.2 914 0.3 93
2019-11-12 08:00:00 1.7 5 Sudeste 7 Sudeste 0 913.4 -0.2 93
2019-11-12 07:00:00 1.3 3 Sudoeste 5 Sudoeste 0 913.4 -0.1 93
2019-11-12 06:00:00 1 0 Calma 7 Norte 0 913.7 0 92
2019-11-12 05:00:00 1 3 Este 10 Noroeste 0 913.6 -0.3 90
2019-11-12 04:00:00 1.9 2 Oeste 12 Noroeste 0 913.5 -0.8 88
2019-11-12 03:00:00 1.6 3 Nordeste 13 Norte 0 913.7 -0.7 91
2019-11-12 02:00:00 1.5 5 Noroeste 13 Nordeste 0 913.9 -0.9 91
2019-11-12 01:00:00 2.8 6 Noroeste 20 Norte 0 914.3 -0.6 87
2019-11-12 00:00:00 2.8 6 Norte 20 Norte 0 914.4 -0.1 88
2019-11-11 23:00:00 3.3 6 Noroeste 15 Noroeste 0 914.8 0.6 86
2019-11-11 22:00:00 4.1 6 Norte 24 Noroeste 0 914.9 1.3 85
2019-11-11 21:00:00 5.2 9 Noroeste 24 Noroeste 0 914.5 1.3 81
2019-11-11 20:00:00 5.5 12 Noroeste 32 Norte 0 914.2 1.4 77
2019-11-11 19:00:00 5.7 9 Norte 30 Norte 0.2 913.6 1.1 86
2019-11-11 18:00:00 6.6 8 Noroeste 29 Norte 1.2 913.2 0.7 92
2019-11-11 17:00:00 6.9 4 Noroeste 13 Norte 0 912.8 -0.3 93
2019-11-11 16:00:00 6.8 6 Norte 15 Norte 0 912.5 -0.6 91
2019-11-11 15:00:00 6.8 4 Norte 16 Norte 0.4 912.5 -1.1 90
2019-11-11 14:00:00 6.5 8 Noroeste 30 Noroeste 0.6 913.1 -0.7 89
2019-11-11 13:00:00 7.8 10 Noroeste 25 Noroeste 0 913.1 -0.3 73
2019-11-11 12:00:00 7.2 11 Noroeste 30 Noroeste 0 913.6 -0.1 72
2019-11-11 11:00:00 6.4 5 Norte 13 Noroeste 0 913.8 0.2 77
2019-11-11 10:00:00 4.6 5 Sudeste 7 Sudeste 0 913.4 -0.5 83
2019-11-11 09:00:00 3.4 3 Sudoeste 7 Oeste 0 913.7 0.1 91
2019-11-11 08:00:00 2.5 4 Sudeste 9 Norte 0 913.6 -0.4 90
2019-11-11 07:00:00 2.4 2 Norte 13 Norte 0 913.9 -0.4 89
2019-11-11 06:00:00 1.2 5 Sudeste 8 Sudeste 0 913.6 -1.2 93
2019-11-11 05:00:00 0.3 5 Sudeste 11 Este 0 914 -0.9 91
2019-11-11 04:00:00 0.9 3 Este 9 Sudeste 0 914.3 -0.7 88
2019-11-11 03:00:00 1.5 2 Norte 11 Oeste 0 914.8 0 87
2019-11-11 02:00:00 1.9 4 Noroeste 15 Sudoeste 0 914.9 0.4 84
2019-11-11 01:00:00 1.2 5 Sur 9 Sur 0 915 1.6 87
2019-11-11 00:00:00 1.7 4 Noroeste 10 Noroeste 0 914.8 1.5 83
2019-11-10 23:00:00 1.8 3 Norte 11 Este 0 914.5 1 80
2019-11-10 22:00:00 2 4 Oeste 16 Noroeste 0 913.4 0.7 80
2019-11-10 21:00:00 2.4 6 Noroeste 15 Noroeste 0 913.3 1.4 78
2019-11-10 20:00:00 3.2 4 Norte 20 Noroeste 0 913.5 1.8 76
2019-11-10 19:00:00 4 8 Noroeste 32 Noroeste 0 912.7 1.4 72
2019-11-10 18:00:00 5.2 12 Noroeste 47 Noroeste 0 911.9 0.9 66
2019-11-10 17:00:00 6.4 14 Noroeste 32 Noroeste 0 911.7 0.3 67
2019-11-10 16:00:00 6.6 15 Noroeste 36 Noroeste 0 911.3 -0.6 62
2019-11-10 15:00:00 6.5 17 Noroeste 44 Noroeste 0 911 -1.7 69
2019-11-10 14:00:00 7.3 18 Noroeste 45 Noroeste 0 911.4 -1.6 65
2019-11-10 13:00:00 6.1 22 Noroeste 44 Noroeste 0 911.9 -1.3 69
2019-11-10 12:00:00 5.3 14 Noroeste 37 Noroeste 0 912.7 -0.3 74
2019-11-10 11:00:00 4.8 13 Noroeste 29 Oeste 0 913 0.4 76
2019-11-10 10:00:00 3.9 11 Noroeste 29 Noroeste 0 913.2 0.8 82
2019-11-10 09:00:00 2.6 11 Noroeste 27 Oeste 0 913 0.6 87
2019-11-10 08:00:00 2.2 7 Noroeste 23 Noroeste 0 912.6 0.3 91
2019-11-10 07:00:00 1.7 4 Oeste 10 Oeste 0 912.4 -0.2 95
2019-11-10 06:00:00 1.5 4 Sur 5 Sur 0 912.4 -0.3 94
2019-11-10 05:00:00 1.7 3 Nordeste 10 Sudeste 0 912.3 -0.5 94
2019-11-10 04:00:00 1.8 2 Oeste 8 Noroeste 0 912.6 -0.7 94
2019-11-10 03:00:00 1.9 0 Calma 10 Sudoeste 0 912.7 0.8 94
2019-11-10 02:00:00 1.3 7 Sur 13 Sur 2.8 912.8 0.3 93
2019-11-10 01:00:00 2.2 5 Norte 41 Noroeste 4 913.3 0.6 92
2019-11-10 00:00:00 7.1 6 Oeste 18 Oeste 0 911.9 -1.4 79
2019-11-09 23:00:00 7.2 10 Oeste 26 Oeste 0 912.5 -1.4 79
2019-11-09 22:00:00 7.2 7 Oeste 24 Oeste 0 912.7 -1.2 75
2019-11-09 21:00:00 7.7 7 Oeste 19 Oeste 0 913.3 -0.9 70
2019-11-09 20:00:00 8.1 4 Noroeste 13 Sudoeste 0 913.9 -0.1 67
2019-11-09 19:00:00 8.9 6 Oeste 23 Oeste 0 913.9 0.2 63
2019-11-09 18:00:00 9.2 9 Oeste 37 Oeste 0 914.2 0.1 61
2019-11-09 17:00:00 9.9 10 Oeste 35 Oeste 0 914 -0.6 60
2019-11-09 16:00:00 10.6 13 Noroeste 34 Oeste 0 913.7 -1.8 55
2019-11-09 15:00:00 10.9 13 Oeste 30 Oeste 0 914.1 -2.3 51
2019-11-09 14:00:00 10.6 14 Noroeste 34 Oeste 0 914.6 -2.5 50
2019-11-09 13:00:00 11.1 12 Noroeste 32 Noroeste 0 915.5 -1.9 50
2019-11-09 12:00:00 9.6 9 Noroeste 24 Noroeste 0 916.4 -1.3 55
2019-11-09 11:00:00 7.9 12 Noroeste 27 Noroeste 0 917.1 -0.2 60
2019-11-09 10:00:00 5.8 10 Noroeste 25 Oeste 0 917.4 0.3 68
2019-11-09 09:00:00 4.1 3 Oeste 17 Oeste 0 917.7 0.7 78
2019-11-09 08:00:00 2.8 4 Oeste 11 Noroeste 0 917.3 0.8 82
2019-11-09 07:00:00 2.8 4 Noroeste 17 Noroeste 0 917.1 0.9 80
2019-11-09 06:00:00 3 3 Noroeste 16 Norte 0 917 0.8 80
2019-11-09 05:00:00 3.1 8 Noroeste 23 Noroeste 0 916.5 0.6 77
2019-11-09 04:00:00 3.3 5 Norte 19 Norte 0 916.2 0.2 76
2019-11-09 03:00:00 3.8 3 Noroeste 23 Noroeste 0 916.2 0.6 72
2019-11-09 02:00:00 4.4 8 Noroeste 29 Noroeste 0 915.9 0.5 68
2019-11-09 01:00:00 5 12 Noroeste 34 Noroeste 0 916 1 66
2019-11-09 00:00:00 5.7 13 Noroeste 37 Noroeste 0 915.6 1 66
2019-11-08 23:00:00 6.2 14 Noroeste 43 Noroeste 0 915.4 1.5 64
2019-11-08 22:00:00 6.9 15 Noroeste 38 Noroeste 0 915 1.6 62
2019-11-08 21:00:00 7 13 Noroeste 39 Oeste 0 914.6 2.2 60
2019-11-08 20:00:00 7.4 15 Noroeste 34 Oeste 0 913.9 1.8 58
2019-11-08 19:00:00 7.6 12 Noroeste 42 Noroeste 0 913.4 1.9 59
2019-11-08 18:00:00 7.6 19 Noroeste 55 Oeste 0 912.4 1.6 57
2019-11-08 17:00:00 7.9 15 Noroeste 49 Noroeste 0 912.1 2.2 54
2019-11-08 16:00:00 8 22 Noroeste 46 Noroeste 0 911.5 1.1 52
2019-11-08 15:00:00 7.8 23 Noroeste 59 Noroeste 0 910.8 -0.3 52
2019-11-08 14:00:00 9.7 26 Noroeste 56 Noroeste 0 909.9 -1.1 46
2019-11-08 13:00:00 8.9 20 Noroeste 53 Noroeste 0 910.4 -0.4 53
2019-11-08 12:00:00 7.6 18 Noroeste 46 Noroeste 0 911.1 0.6 59
2019-11-08 11:00:00 6.5 20 Noroeste 43 Noroeste 0 911 1.1 62
2019-11-08 10:00:00 4.8 18 Noroeste 39 Noroeste 0 910.8 1.3 68
2019-11-08 09:00:00 3.9 10 Noroeste 35 Noroeste 0 910.5 1.2 70
2019-11-08 08:00:00 3 7 Noroeste 22 Noroeste 0 909.9 1.4 73
2019-11-08 07:00:00 3 6 Noroeste 18 Noroeste 0 909.5 1.2 71
2019-11-08 06:00:00 2.8 7 Oeste 21 Noroeste 0 909.3 0.7 75
2019-11-08 05:00:00 3.3 6 Noroeste 21 Oeste 0 908.5 0.2 73
2019-11-08 04:00:00 3.3 4 Noroeste 15 Oeste 0 908.3 -0.4 76
2019-11-08 03:00:00 2.8 3 Noroeste 17 Noroeste 0 908.6 0.1 71
2019-11-08 02:00:00 3.6 5 Noroeste 18 Oeste 0 908.3 -0.2 74
2019-11-08 01:00:00 3.7 3 Noroeste 18 Sudoeste 0 908.7 0 78
2019-11-08 00:00:00 3.9 4 Oeste 10 Oeste 0 908.5 -0.3 78